Time;durP1;ratioP1;P1;durP2;ratioP2;P2;SDS_P1;SDS_P2;PMS_P1;PMS_P2;Temp;Humidity;BMP_temperature;BMP_pressure;BME280_temperature;BME280_humidity;BME280_pressure;Samples;Min_cycle;Max_cycle;Signal;HPM_P1;HPM_P2
2023/08/14 00:00:41;;;;;;;7.38;3.00;;;;;;;23.38;100.00;101211.19;4933019;29;20044;-48
2023/08/14 00:03:07;;;;;;;11.20;3.20;;;;;;;23.56;100.00;101211.72;4940453;29;20070;-52
2023/08/14 00:05:34;;;;;;;10.70;3.20;;;;;;;23.44;100.00;101210.03;4943353;29;20155;-49
2023/08/14 00:08:01;;;;;;;9.45;2.65;;;;;;;23.62;100.00;101220.34;4941695;29;20065;-48
2023/08/14 00:10:27;;;;;;;9.65;3.30;;;;;;;23.65;100.00;101213.66;4948072;29;20300;-46
2023/08/14 00:12:54;;;;;;;9.27;3.10;;;;;;;23.64;100.00;101217.78;4945442;29;20494;-51
2023/08/14 00:15:21;;;;;;;7.22;2.70;;;;;;;23.73;100.00;101214.81;4924775;29;20055;-50
2023/08/14 00:17:47;;;;;;;7.68;2.38;;;;;;;23.69;100.00;101208.59;4939260;29;20048;-47
2023/08/14 00:20:14;;;;;;;9.07;2.83;;;;;;;23.67;100.00;101211.13;4934891;29;20062;-50
2023/08/14 00:22:41;;;;;;;8.95;2.72;;;;;;;23.74;100.00;101217.16;4933238;29;20564;-48
2023/08/14 00:25:09;;;;;;;6.32;2.92;;;;;;;23.93;100.00;101211.97;4940566;29;20059;-49
2023/08/14 00:27:35;;;;;;;9.43;2.88;;;;;;;23.65;100.00;101208.00;4947268;29;20047;-55
2023/08/14 00:30:03;;;;;;;11.30;3.25;;;;;;;23.48;100.00;101198.44;4941574;29;20048;-50
2023/08/14 00:32:29;;;;;;;8.38;2.83;;;;;;;23.44;100.00;101203.56;4938813;29;20130;-47
2023/08/14 00:34:56;;;;;;;6.95;2.50;;;;;;;23.54;100.00;101205.78;4935103;29;20163;-46
2023/08/14 00:37:48;;;;;;;14.52;3.42;;;;;;;23.42;100.00;101201.22;4941434;29;20084;-50
2023/08/14 00:40:16;;;;;;;9.80;2.58;;;;;;;23.41;100.00;101202.50;4931979;29;20093;-47
2023/08/14 00:42:45;;;;;;;6.63;2.83;;;;;;;23.77;100.00;101204.03;4938581;29;20043;-47
2023/08/14 00:45:12;;;;;;;8.50;2.97;;;;;;;23.58;100.00;101203.50;4938209;29;20062;-48
2023/08/14 00:47:41;;;;;;;7.90;2.88;;;;;;;23.53;100.00;101201.34;4932505;29;20118;-46
2023/08/14 00:50:08;;;;;;;8.27;3.03;;;;;;;23.43;100.00;101207.69;4931483;29;20139;-49
2023/08/14 00:52:39;;;;;;;6.22;2.60;;;;;;;23.50;100.00;101213.72;4941156;29;20051;-47
2023/08/14 00:55:10;;;;;;;6.82;2.55;;;;;;;23.53;100.00;101204.19;4935754;29;20048;-46
2023/08/14 00:57:38;;;;;;;10.18;2.72;;;;;;;23.42;100.00;101206.88;4930216;29;20510;-48
2023/08/14 01:00:06;;;;;;;8.38;3.05;;;;;;;23.37;100.00;101209.66;4935829;29;20052;-49
2023/08/14 01:02:34;;;;;;;5.82;2.83;;;;;;;23.44;100.00;101203.56;4936578;29;20098;-48
2023/08/14 01:05:01;;;;;;;8.90;2.85;;;;;;;23.58;100.00;101194.19;4935276;29;20384;-47
2023/08/14 01:07:29;;;;;;;7.57;2.72;;;;;;;23.50;100.00;101193.88;4939799;29;20050;-49
2023/08/14 01:09:56;;;;;;;6.45;2.58;;;;;;;23.45;100.00;101197.38;4933355;29;20047;-45
2023/08/14 01:12:45;;;;;;;6.28;2.25;;;;;;;23.44;100.00;101201.50;4932320;29;20133;-46
2023/08/14 01:15:18;;;;;;;7.80;2.53;;;;;;;23.57;100.00;101206.84;4929254;29;20052;-54
2023/08/14 01:18:00;;;;;;;7.70;2.60;;;;;;;23.67;100.00;101200.56;4935817;29;20552;-50
2023/08/14 01:20:29;;;;;;;5.38;2.30;;;;;;;23.50;100.00;101201.59;4938599;29;20058;-49
2023/08/14 01:23:05;;;;;;;5.15;2.47;;;;;;;23.67;100.00;101206.25;4932574;29;20095;-46
2023/08/14 01:25:33;;;;;;;6.40;2.72;;;;;;;23.48;100.00;101198.44;4931619;29;20518;-51
2023/08/14 01:28:01;;;;;;;8.10;2.45;;;;;;;23.44;100.00;101192.19;4933198;29;20521;-52
2023/08/14 01:30:28;;;;;;;6.57;2.85;;;;;;;23.59;100.00;101198.63;4940163;29;20051;-53
2023/08/14 01:32:55;;;;;;;10.30;2.72;;;;;;;23.48;100.00;101187.09;4945322;29;20071;-53
2023/08/14 01:35:24;;;;;;;4.53;2.25;;;;;;;23.49;100.00;101180.16;4947911;29;20151;-49
2023/08/14 01:38:23;;;;;;;7.03;2.53;;;;;;;23.48;100.00;101189.94;4947604;28;20040;-50
2023/08/14 01:41:12;;;;;;;8.80;2.20;;;;;;;23.61;100.00;101184.72;4938465;28;20047;-47
2023/08/14 01:43:44;;;;;;;9.15;3.13;;;;;;;23.75;100.00;101181.81;4939385;29;20050;-49
2023/08/14 01:46:14;;;;;;;6.82;2.20;;;;;;;23.83;100.00;101177.25;4934852;29;20047;-48
2023/08/14 01:48:42;;;;;;;8.10;2.30;;;;;;;23.74;100.00;101176.63;4928256;29;20445;-47
2023/08/14 01:51:10;;;;;;;6.72;2.33;;;;;;;23.55;100.00;101181.00;4929189;29;20116;-46
2023/08/14 01:53:37;;;;;;;7.15;2.60;;;;;;;23.51;100.00;101169.88;4935130;29;20059;-47
2023/08/14 01:56:03;;;;;;;7.18;2.55;;;;;;;23.53;100.00;101169.38;4931464;29;20047;-46
2023/08/14 01:58:30;;;;;;;5.85;2.33;;;;;;;24.03;100.00;101167.94;4927527;29;20075;-48
2023/08/14 11:31:44;;;;;;;9.10;2.58;;;;;;;23.85;100.00;101007.19;5106934;27;20939;-49
2023/08/14 11:34:15;;;;;;;6.28;2.55;;;;;;;24.25;100.00;101014.78;5107140;28;20070;-47
2023/08/14 11:36:55;;;;;;;10.80;2.85;;;;;;;24.29;100.00;101004.75;5106791;28;20128;-47
2023/08/14 11:39:25;;;;;;;7.28;2.13;;;;;;;24.29;100.00;101001.91;5091305;28;20127;-48
2023/08/14 11:41:52;;;;;;;8.95;2.50;;;;;;;24.30;100.00;100999.84;5100799;28;20075;-48
2023/08/14 11:44:19;;;;;;;7.80;3.05;;;;;;;24.30;100.00;101011.97;5096271;28;20131;-50
2023/08/14 11:46:47;;;;;;;9.15;2.90;;;;;;;24.30;100.00;101006.28;5099947;28;20076;-47
2023/08/14 11:49:15;;;;;;;8.18;2.47;;;;;;;24.35;100.00;101002.72;5096852;28;20050;-46
2023/08/14 11:51:42;;;;;;;10.98;3.13;;;;;;;24.27;100.00;101000.84;5101072;28;20052;-50
2023/08/14 11:54:09;;;;;;;10.90;2.92;;;;;;;24.35;100.00;101001.94;5095315;28;20075;-47
2023/08/14 11:56:37;;;;;;;13.50;3.25;;;;;;;24.44;100.00;100990.38;5099377;28;20101;-45
2023/08/14 11:59:05;;;;;;;6.45;2.35;;;;;;;24.42;100.00;100988.03;5104447;28;20074;-45
2023/08/14 12:01:37;;;;;;;7.63;2.50;;;;;;;24.40;100.00;100990.59;5104709;28;20546;-51
2023/08/14 12:04:06;;;;;;;6.50;2.40;;;;;;;24.47;100.00;100992.22;5100608;28;20665;-45
2023/08/14 12:06:34;;;;;;;13.68;2.40;;;;;;;24.50;100.00;100999.69;5113762;28;20048;-49
2023/08/14 12:09:01;;;;;;;6.30;2.53;;;;;;;24.49;100.00;100998.16;5105463;28;20059;-43
2023/08/14 12:11:29;;;;;;;7.45;2.70;;;;;;;24.54;100.00;100988.91;5106427;28;20134;-46
2023/08/14 12:13:55;;;;;;;6.03;2.20;;;;;;;24.60;100.00;100998.22;5105694;28;20054;-45
2023/08/14 12:16:24;;;;;;;7.80;2.47;;;;;;;24.58;100.00;101002.84;5102039;28;20051;-45
2023/08/14 12:18:54;;;;;;;6.47;2.00;;;;;;;24.59;100.00;101010.09;5095324;28;20122;-45
2023/08/14 12:21:26;;;;;;;6.47;2.00;;;;;;;24.59;100.00;100993.81;5100115;28;20055;-45
2023/08/14 12:23:54;;;;;;;9.20;2.25;;;;;;;24.43;100.00;101003.00;5096500;28;20086;-48
2023/08/14 12:26:22;;;;;;;11.95;2.35;;;;;;;24.55;100.00;100998.97;5107401;27;20100;-46
2023/08/14 12:28:48;;;;;;;9.48;2.40;;;;;;;24.39;100.00;101008.16;5095783;28;20043;-47
2023/08/14 12:31:15;;;;;;;8.27;2.38;;;;;;;24.44;100.00;101002.50;5101282;28;20509;-45
2023/08/14 12:33:42;;;;;;;8.75;2.05;;;;;;;24.51;100.00;100989.13;5104149;28;20064;-47
2023/08/14 12:36:12;;;;;;;6.03;2.40;;;;;;;24.74;100.00;101013.53;5105758;28;20573;-46
2023/08/14 12:38:38;;;;;;;7.75;2.30;;;;;;;24.70;100.00;100995.97;5110285;28;20055;-46
2023/08/14 12:41:05;;;;;;;10.25;2.35;;;;;;;24.76;100.00;100988.22;5103473;28;20044;-45
2023/08/14 12:43:35;;;;;;;10.80;2.40;;;;;;;24.44;100.00;100984.69;5069776;28;20059;-46
2023/08/14 12:46:09;;;;;;;5.88;2.00;;;;;;;24.61;100.00;100977.03;5088213;28;20044;-44
2023/08/14 12:48:38;;;;;;;25.02;4.13;;;;;;;24.55;100.00;100972.59;5098563;28;20052;-48
2023/08/14 12:51:05;;;;;;;5.10;2.25;;;;;;;24.62;100.00;100972.91;5092041;28;20040;-46
2023/08/14 12:53:33;;;;;;;7.95;2.40;;;;;;;24.60;100.00;100958.41;5092153;28;20121;-45
2023/08/14 12:56:01;;;;;;;15.68;2.90;;;;;;;24.56;100.00;100959.97;5087456;28;20044;-45
2023/08/14 12:58:29;;;;;;;12.23;2.42;;;;;;;24.86;100.00;100946.94;5093654;28;20059;-46
2023/08/14 13:00:56;;;;;;;6.72;2.22;;;;;;;24.67;100.00;100946.56;5091062;28;20093;-43
2023/08/14 13:03:30;;;;;;;9.05;2.72;;;;;;;24.59;100.00;100944.72;5092814;28;20182;-47
2023/08/14 13:06:04;;;;;;;11.85;2.72;;;;;;;24.93;100.00;100940.75;5090545;28;20182;-47
2023/08/14 13:08:30;;;;;;;14.50;2.97;;;;;;;24.61;100.00;100931.56;5092479;28;20052;-44
2023/08/14 13:10:57;;;;;;;8.70;2.90;;;;;;;24.73;100.00;100921.03;5093341;28;20047;-46
2023/08/14 13:13:26;;;;;;;16.33;3.00;;;;;;;24.70;100.00;100917.13;5086821;28;20460;-44
2023/08/14 13:15:54;;;;;;;7.53;2.38;;;;;;;24.61;100.00;100908.03;5080624;28;20044;-47
2023/08/14 13:18:21;;;;;;;11.02;2.63;;;;;;;24.71;100.00;100906.53;5084518;28;20043;-44
2023/08/14 13:20:48;;;;;;;8.38;2.47;;;;;;;24.96;100.00;100905.59;5079277;28;20359;-45
2023/08/14 13:23:14;;;;;;;7.32;2.45;;;;;;;24.79;100.00;100896.22;5092591;28;20093;-46
2023/08/14 13:25:42;;;;;;;9.30;2.67;;;;;;;24.88;100.00;100896.03;5079595;28;20521;-46
2023/08/14 13:28:09;;;;;;;8.65;2.40;;;;;;;25.05;100.00;100897.63;5084314;28;20051;-44
2023/08/14 13:30:36;;;;;;;9.25;3.13;;;;;;;25.18;100.00;100891.44;5082647;28;20712;-48
2023/08/14 13:33:02;;;;;;;8.35;2.72;;;;;;;25.10;100.00;100884.69;5086835;28;20528;-47
2023/08/14 13:35:29;;;;;;;12.63;3.00;;;;;;;24.85;100.00;100894.19;5094285;28;20048;-49
2023/08/14 13:37:56;;;;;;;8.15;2.90;;;;;;;24.58;100.00;100881.41;5088660;28;20051;-45
2023/08/14 13:40:22;;;;;;;17.90;3.30;;;;;;;24.48;100.00;100882.94;5083294;28;20044;-47
2023/08/14 13:42:49;;;;;;;9.52;3.03;;;;;;;24.30;100.00;100878.44;5086995;28;20051;-48
2023/08/14 13:45:16;;;;;;;8.75;3.13;;;;;;;24.47;100.00;100870.00;5079959;28;20044;-48
2023/08/14 13:47:45;;;;;;;6.97;2.80;;;;;;;24.74;100.00;100866.47;5079534;28;20051;-49
2023/08/14 13:50:26;;;;;;;7.50;2.53;;;;;;;24.82;100.00;100867.53;5085685;28;20040;-47
2023/08/14 13:52:59;;;;;;;11.70;2.83;;;;;;;24.66;100.00;100858.94;5080198;28;20048;-48
2023/08/14 13:55:33;;;;;;;7.43;3.03;;;;;;;24.64;100.00;100850.16;5083695;28;20044;-44
2023/08/14 13:58:01;;;;;;;8.93;3.17;;;;;;;24.57;100.00;100847.81;5088395;28;20061;-46
2023/08/14 14:00:28;;;;;;;9.38;3.03;;;;;;;24.50;100.00;100843.38;5085913;28;20052;-47
2023/08/14 14:02:57;;;;;;;9.70;3.38;;;;;;;24.41;100.00;100837.94;5089432;28;20044;-47
2023/08/14 14:05:25;;;;;;;11.10;3.20;;;;;;;24.51;100.00;100829.97;5082604;28;20764;-47
2023/08/14 14:07:52;;;;;;;8.73;3.45;;;;;;;24.47;100.00;100843.66;5083247;28;20048;-46
2023/08/14 14:10:22;;;;;;;8.90;2.95;;;;;;;24.39;100.00;100838.47;5073136;28;20131;-46
2023/08/14 14:12:49;;;;;;;9.10;4.10;;;;;;;24.61;100.00;100834.94;5082184;28;20132;-46
2023/08/14 14:15:18;;;;;;;9.88;2.75;;;;;;;24.79;100.00;100834.44;5076432;28;20075;-47
2023/08/14 14:17:45;;;;;;;9.00;3.13;;;;;;;24.79;100.00;100837.28;5087275;28;20075;-51
2023/08/14 14:20:11;;;;;;;10.20;3.40;;;;;;;24.87;100.00;100832.69;5079848;28;20563;-51
2023/08/14 14:22:38;;;;;;;7.28;2.90;;;;;;;24.83;100.00;100834.97;5088080;28;20075;-50
2023/08/14 14:25:05;;;;;;;11.82;3.38;;;;;;;24.78;100.00;100834.97;5079803;28;20468;-46
2023/08/14 14:27:31;;;;;;;12.07;3.25;;;;;;;24.71;100.00;100833.41;5086981;28;20150;-48
2023/08/14 14:29:58;;;;;;;11.13;3.53;;;;;;;24.76;100.00;100831.84;5077559;28;20482;-52
2023/08/14 14:32:24;;;;;;;7.78;2.95;;;;;;;24.84;100.00;100828.00;5086193;28;20486;-46
2023/08/14 14:34:51;;;;;;;10.65;3.10;;;;;;;24.84;100.00;100822.31;5090006;28;20051;-48
2023/08/14 14:37:18;;;;;;;13.93;3.33;;;;;;;24.86;100.00;100828.28;5082348;28;20052;-48
2023/08/14 14:39:45;;;;;;;6.95;2.90;;;;;;;24.82;100.00;100819.22;5085396;28;20048;-48
2023/08/14 14:42:11;;;;;;;14.18;3.03;;;;;;;24.84;100.00;100819.47;5094109;28;20062;-49
2023/08/14 14:44:38;;;;;;;8.13;3.10;;;;;;;24.98;100.00;100817.72;5032088;28;91340;-51
2023/08/14 14:47:04;;;;;;;7.57;3.10;;;;;;;24.99;100.00;100814.34;5051905;28;20049;-46
2023/08/14 14:49:31;;;;;;;9.27;3.13;;;;;;;24.83;100.00;100815.06;5039296;28;20077;-48
2023/08/14 14:52:01;;;;;;;8.77;3.30;;;;;;;24.92;100.00;100817.72;5042814;28;20052;-50
2023/08/14 14:54:27;;;;;;;7.85;2.60;;;;;;;25.05;100.00;100828.56;5038444;28;21884;-49
2023/08/14 14:56:54;;;;;;;5.40;2.33;;;;;;;24.78;100.00;100838.59;5041434;28;20045;-48
2023/08/14 14:59:20;;;;;;;5.85;2.55;;;;;;;25.17;100.00;100830.16;5047607;28;20049;-47
2023/08/14 15:01:47;;;;;;;10.90;3.05;;;;;;;25.02;100.00;100830.41;5059549;28;20156;-48
2023/08/14 15:04:13;;;;;;;11.52;3.10;;;;;;;25.05;100.00;100837.13;5045964;28;20067;-48
2023/08/14 15:06:41;;;;;;;8.98;3.15;;;;;;;25.09;100.00;100835.56;5059000;28;20052;-45
2023/08/14 15:09:07;;;;;;;5.25;2.90;;;;;;;25.23;100.00;100845.94;5046774;28;20141;-48
2023/08/14 15:11:34;;;;;;;7.85;3.22;;;;;;;25.16;100.00;100840.75;5038676;28;20052;-45
2023/08/14 15:14:01;;;;;;;8.65;3.08;;;;;;;25.13;100.00;100835.31;5039153;28;20068;-48
2023/08/14 15:16:27;;;;;;;10.27;2.90;;;;;;;25.10;100.00;100837.13;5037145;28;20135;-49
2023/08/14 15:18:57;;;;;;;6.80;2.75;;;;;;;25.14;100.00;100837.63;5041552;28;20056;-46
2023/08/14 15:21:24;;;;;;;7.90;2.92;;;;;;;25.10;100.00;100842.03;5038363;28;20038;-45
2023/08/14 15:23:50;;;;;;;7.95;3.08;;;;;;;25.18;100.00;100841.00;5046917;28;20087;-46
2023/08/14 15:26:17;;;;;;;8.77;2.88;;;;;;;25.23;100.00;100837.38;5048154;28;20132;-50
2023/08/14 15:28:43;;;;;;;6.40;3.13;;;;;;;25.07;100.00;100841.00;5043990;28;20123;-46
2023/08/14 15:31:10;;;;;;;7.20;2.95;;;;;;;25.05;100.00;100840.75;5045974;28;20099;-46
2023/08/14 15:33:37;;;;;;;7.75;2.75;;;;;;;25.01;100.00;100851.56;5049872;28;20045;-50
2023/08/14 15:36:03;;;;;;;7.25;2.90;;;;;;;25.02;100.00;100846.66;5054636;28;20049;-50
2023/08/14 15:38:30;;;;;;;6.78;3.10;;;;;;;25.01;100.00;100851.56;5055735;28;20076;-47
2023/08/14 15:40:56;;;;;;;5.60;2.78;;;;;;;25.09;100.00;100846.16;5047211;28;20076;-48
2023/08/14 15:43:23;;;;;;;7.70;2.88;;;;;;;24.90;100.00;100845.13;5042567;28;20059;-51
2023/08/14 15:46:00;;;;;;;5.88;3.10;;;;;;;24.96;100.00;100840.97;5033115;28;20048;-47
2023/08/14 15:48:27;;;;;;;8.82;2.83;;;;;;;25.12;100.00;100839.44;5045483;28;20053;-48
2023/08/14 15:50:54;;;;;;;10.00;2.90;;;;;;;25.18;100.00;100843.06;5047057;28;20072;-51
2023/08/14 15:53:20;;;;;;;12.23;3.50;;;;;;;25.02;100.00;100841.78;5044409;28;20056;-47
2023/08/14 15:55:48;;;;;;;25.63;8.93;;;;;;;25.14;100.00;100845.41;5046472;28;20095;-47
2023/08/14 15:58:15;;;;;;;142.48;40.92;;;;;;;25.22;100.00;100847.22;5048351;28;20481;-48
2023/08/14 16:00:43;;;;;;;82.97;24.95;;;;;;;25.09;100.00;100834.78;5052039;28;20041;-50
2023/08/14 16:03:10;;;;;;;165.63;47.47;;;;;;;25.40;100.00;100843.06;5043373;28;20426;-48
2023/08/14 16:05:37;;;;;;;168.65;48.22;;;;;;;25.42;100.00;100835.59;5048544;28;20110;-47
2023/08/14 16:08:05;;;;;;;150.20;48.35;;;;;;;25.25;100.00;100839.72;5047069;28;20065;-50
2023/08/14 16:10:31;;;;;;;161.65;46.10;;;;;;;25.25;100.00;100845.41;5050178;28;20060;-45
2023/08/14 16:12:58;;;;;;;153.48;41.40;;;;;;;25.20;100.00;100837.63;5037791;28;20049;-47
2023/08/14 16:15:24;;;;;;;145.05;40.53;;;;;;;25.30;100.00;100844.63;5046181;28;20122;-47
2023/08/14 16:17:51;;;;;;;104.90;33.63;;;;;;;24.99;100.00;100848.47;5047754;28;20099;-49
2023/08/14 16:20:17;;;;;;;126.32;39.85;;;;;;;25.26;100.00;100844.13;5048141;28;20045;-49
2023/08/14 16:22:44;;;;;;;113.97;35.78;;;;;;;25.15;100.00;100852.63;5050088;28;20052;-46
2023/08/14 16:25:11;;;;;;;114.38;36.08;;;;;;;25.23;100.00;100850.81;5037897;28;20091;-48
2023/08/14 16:27:37;;;;;;;116.32;33.17;;;;;;;25.17;100.00;100850.81;5042710;28;20095;-44
2023/08/14 16:30:04;;;;;;;87.93;31.35;;;;;;;25.19;100.00;100851.09;5050304;28;20072;-49
2023/08/14 16:32:31;;;;;;;89.97;29.73;;;;;;;25.20;100.00;100841.25;5041989;28;20081;-50
2023/08/14 16:34:58;;;;;;;82.50;24.35;;;;;;;25.25;100.00;100851.09;5049444;28;20053;-45
2023/08/14 16:37:24;;;;;;;81.57;26.08;;;;;;;25.27;100.00;100839.97;5042017;28;20052;-44
2023/08/14 16:39:51;;;;;;;84.63;25.17;;;;;;;25.45;100.00;100840.25;5050225;28;20068;-47
2023/08/14 16:42:17;;;;;;;69.00;20.50;;;;;;;25.31;100.00;100843.34;5059604;28;20573;-49
2023/08/14 16:44:44;;;;;;;81.20;21.92;;;;;;;25.29;100.00;100841.03;5047534;28;20080;-45
2023/08/14 16:47:11;;;;;;;54.88;18.95;;;;;;;25.32;100.00;100848.53;5046233;28;20056;-44
2023/08/14 16:49:38;;;;;;;61.45;20.00;;;;;;;25.56;100.00;100837.44;5049473;28;20060;-47
2023/08/14 16:52:04;;;;;;;50.80;16.77;;;;;;;25.51;100.00;100846.72;5051478;28;20037;-44
2023/08/14 16:54:31;;;;;;;44.95;16.85;;;;;;;25.53;100.00;100840.53;5046418;28;20392;-44
2023/08/14 16:56:57;;;;;;;51.08;15.07;;;;;;;25.54;100.00;100834.31;5051384;28;20048;-50
2023/08/14 16:59:24;;;;;;;45.75;14.45;;;;;;;25.60;100.00;100837.94;5053165;28;20064;-46
2023/08/14 17:01:50;;;;;;;37.67;13.48;;;;;;;25.56;100.00;100836.63;5049717;28;20078;-47
2023/08/14 17:04:17;;;;;;;41.00;12.82;;;;;;;25.66;100.00;100844.41;5057563;28;20159;-44
2023/08/14 17:06:44;;;;;;;43.28;12.48;;;;;;;25.59;100.00;100844.16;5044425;28;20057;-50
2023/08/14 17:09:13;;;;;;;61.53;13.32;;;;;;;25.64;100.00;100832.75;5046509;28;20044;-50
2023/08/14 17:11:40;;;;;;;42.05;13.57;;;;;;;25.66;100.00;100843.63;5040025;28;20052;-48
2023/08/14 17:14:06;;;;;;;31.92;11.65;;;;;;;25.67;100.00;100845.16;5044365;28;20203;-48
2023/08/14 17:16:33;;;;;;;33.47;12.55;;;;;;;25.66;100.00;100849.31;5031557;28;20060;-46
2023/08/14 17:18:59;;;;;;;39.10;12.30;;;;;;;25.64;100.00;100840.50;5034607;28;20572;-46
2023/08/14 17:21:26;;;;;;;31.23;12.10;;;;;;;25.68;100.00;100838.19;5040502;28;20068;-49
2023/08/14 17:23:52;;;;;;;34.05;11.07;;;;;;;25.72;100.00;100845.16;5047434;28;20550;-48
2023/08/14 17:26:19;;;;;;;32.25;10.90;;;;;;;25.66;100.00;100838.72;5063364;28;20051;-47
2023/08/14 17:28:46;;;;;;;24.90;8.88;;;;;;;25.74;100.00;100838.94;5045751;28;20052;-46
2023/08/14 17:31:14;;;;;;;25.17;8.50;;;;;;;25.70;100.00;100833.53;5045922;28;20115;-46
2023/08/14 17:33:43;;;;;;;29.25;9.23;;;;;;;25.40;100.00;100832.47;5050054;28;20134;-48
2023/08/14 17:36:10;;;;;;;31.92;9.13;;;;;;;25.36;100.00;100837.66;5049063;28;20136;-50
2023/08/14 17:38:36;;;;;;;25.60;8.23;;;;;;;25.20;100.00;100838.41;5055384;28;20117;-44
2023/08/14 17:41:03;;;;;;;22.50;7.75;;;;;;;25.08;100.00;100836.88;5045428;28;20081;-48
2023/08/14 17:43:30;;;;;;;24.55;8.20;;;;;;;25.03;100.00;100831.16;5046337;28;20461;-48
2023/08/14 17:45:57;;;;;;;28.40;7.30;;;;;;;24.96;100.00;100835.28;5037706;28;20419;-45
2023/08/14 17:48:24;;;;;;;20.90;7.05;;;;;;;25.43;100.00;100837.13;5046169;28;20044;-48
2023/08/14 17:50:52;;;;;;;21.98;7.95;;;;;;;25.50;100.00;100830.16;5045712;28;20447;-47
2023/08/14 17:53:19;;;;;;;20.08;6.72;;;;;;;25.50;100.00;100833.81;5042978;28;20049;-45
2023/08/14 17:55:46;;;;;;;18.40;6.47;;;;;;;25.48;100.00;100832.78;5042803;28;20048;-44
2023/08/14 17:58:12;;;;;;;21.77;7.10;;;;;;;25.34;100.00;100833.78;5048109;28;20114;-47
2023/08/14 18:00:48;;;;;;;21.33;6.05;;;;;;;25.47;100.00;100832.00;5049045;28;20149;-43
2023/08/14 18:03:15;;;;;;;18.52;6.68;;;;;;;25.52;100.00;100836.88;5039812;28;20049;-44
2023/08/14 18:05:51;;;;;;;18.80;6.80;;;;;;;25.50;100.00;100833.00;5058337;28;20415;-47
2023/08/14 18:08:19;;;;;;;16.98;6.05;;;;;;;25.48;100.00;100839.22;5047166;28;20056;-45
2023/08/14 18:10:46;;;;;;;16.98;5.68;;;;;;;25.54;100.00;100850.59;5048582;28;20106;-45
2023/08/14 18:13:13;;;;;;;17.92;6.22;;;;;;;25.48;100.00;100841.31;5054553;28;20048;-46
2023/08/14 18:15:40;;;;;;;19.75;5.72;;;;;;;25.47;100.00;100839.75;5053084;28;20049;-47
2023/08/14 18:18:06;;;;;;;13.23;5.30;;;;;;;25.51;100.00;100855.25;5049884;28;20045;-48
2023/08/14 18:20:33;;;;;;;14.38;5.30;;;;;;;25.51;100.00;100846.72;5043601;28;20055;-45
2023/08/14 18:23:00;;;;;;;13.38;5.13;;;;;;;25.57;100.00;100844.66;5049516;28;20593;-49
2023/08/14 18:25:26;;;;;;;16.65;5.53;;;;;;;25.53;100.00;100844.16;5049637;28;20155;-46
2023/08/14 18:27:53;;;;;;;15.30;5.30;;;;;;;25.46;100.00;100841.03;5048531;28;20080;-46
2023/08/14 18:30:19;;;;;;;12.02;4.60;;;;;;;25.45;100.00;100837.41;5038656;28;20153;-48
2023/08/14 18:32:46;;;;;;;15.98;5.35;;;;;;;25.48;100.00;100838.47;5051751;28;20087;-46
2023/08/14 18:35:13;;;;;;;10.38;4.38;;;;;;;25.50;100.00;100845.19;5048348;28;20063;-46
2023/08/14 18:37:39;;;;;;;11.77;4.80;;;;;;;25.53;100.00;100849.84;5049733;28;20102;-46
2023/08/14 18:40:07;;;;;;;11.20;4.70;;;;;;;25.49;100.00;100840.78;5056150;28;20904;-48
2023/08/14 18:42:39;;;;;;;13.38;4.95;;;;;;;25.53;100.00;100846.22;5048887;28;20145;-46
2023/08/14 18:45:06;;;;;;;12.07;4.68;;;;;;;25.41;100.00;100845.41;5050903;28;20103;-45
2023/08/14 18:47:33;;;;;;;13.55;4.15;;;;;;;25.41;100.00;100844.66;5046485;28;20084;-46
2023/08/14 18:49:59;;;;;;;10.13;4.03;;;;;;;25.25;100.00;100842.56;5049197;28;20041;-45
2023/08/14 18:52:27;;;;;;;13.05;4.53;;;;;;;25.26;100.00;100850.59;5045535;28;20103;-49
2023/08/14 18:54:53;;;;;;;13.40;4.68;;;;;;;25.27;100.00;100843.59;5049076;28;20079;-48
2023/08/14 18:57:20;;;;;;;13.13;4.80;;;;;;;25.13;100.00;100849.53;5049693;28;20079;-48
2023/08/14 18:59:47;;;;;;;12.13;4.50;;;;;;;25.12;100.00;100840.22;5048307;28;20052;-44
2023/08/14 19:02:13;;;;;;;12.88;4.30;;;;;;;25.04;100.00;100841.25;5048157;28;20040;-46
2023/08/14 19:04:43;;;;;;;13.02;4.13;;;;;;;25.05;100.00;100840.75;5048856;28;20053;-48
2023/08/14 19:07:11;;;;;;;14.10;4.57;;;;;;;25.07;100.00;100849.53;5054747;28;20049;-45
2023/08/14 19:09:37;;;;;;;10.70;4.10;;;;;;;25.11;100.00;100843.59;5044767;28;20494;-47
2023/08/14 19:12:05;;;;;;;12.23;4.03;;;;;;;25.01;100.00;100836.59;5042699;28;20091;-48
2023/08/14 19:14:33;;;;;;;14.80;4.93;;;;;;;25.06;100.00;100842.28;5050166;28;20053;-47
2023/08/14 19:16:59;;;;;;;11.95;4.85;;;;;;;25.06;100.00;100847.97;5042320;28;20045;-50
2023/08/14 19:19:26;;;;;;;8.68;4.03;;;;;;;25.14;100.00;100843.31;5047237;28;20055;-46
2023/08/14 19:21:52;;;;;;;9.20;3.92;;;;;;;25.09;100.00;100846.16;5047560;28;20127;-45
2023/08/14 19:24:19;;;;;;;10.52;3.85;;;;;;;25.22;100.00;100850.06;5048270;28;20053;-46
2023/08/14 19:26:46;;;;;;;13.07;4.13;;;;;;;25.23;100.00;100848.78;5044214;28;20415;-43
2023/08/14 19:29:12;;;;;;;10.68;4.20;;;;;;;25.17;100.00;100850.06;5047011;28;20615;-48
2023/08/14 19:31:39;;;;;;;10.93;3.85;;;;;;;25.18;100.00;100857.31;5051056;28;20427;-47
2023/08/14 19:34:06;;;;;;;12.60;4.15;;;;;;;25.09;100.00;100854.69;5047026;28;20087;-46
2023/08/14 19:36:32;;;;;;;8.88;3.90;;;;;;;25.22;100.00;100861.44;5040120;28;20136;-50
2023/08/14 19:38:59;;;;;;;11.35;3.95;;;;;;;25.14;100.00;100857.53;5048773;28;20121;-48
2023/08/14 19:41:29;;;;;;;7.38;3.75;;;;;;;25.07;100.00;100860.13;5045388;28;20060;-49
2023/08/14 19:43:56;;;;;;;10.70;4.22;;;;;;;25.09;100.00;100861.16;5045582;28;20049;-48
2023/08/14 19:46:23;;;;;;;10.48;4.60;;;;;;;25.13;100.00;100861.69;5053410;28;20045;-47
2023/08/14 19:48:50;;;;;;;8.70;3.90;;;;;;;25.17;100.00;100864.28;5054967;28;20086;-49
2023/08/14 19:51:17;;;;;;;16.33;4.72;;;;;;;25.25;100.00;100866.13;5043769;28;20056;-49
2023/08/14 19:53:44;;;;;;;10.57;4.10;;;;;;;25.36;100.00;100866.13;5044784;28;20575;-46
2023/08/14 19:56:10;;;;;;;11.93;4.10;;;;;;;25.45;100.00;100870.81;5051193;28;20056;-47
2023/08/14 19:58:37;;;;;;;9.02;3.90;;;;;;;25.39;100.00;100872.84;5044635;28;20063;-49
2023/08/14 20:01:03;;;;;;;8.98;3.75;;;;;;;25.32;100.00;100873.34;5052085;28;20045;-46
2023/08/14 20:03:30;;;;;;;10.75;4.03;;;;;;;25.36;100.00;100877.50;5058382;28;20045;-46
2023/08/14 20:05:57;;;;;;;8.60;3.35;;;;;;;25.02;100.00;100864.53;5046046;28;20184;-49
2023/08/14 20:08:23;;;;;;;12.55;4.38;;;;;;;25.04;100.00;100864.78;5046509;28;20077;-47
2023/08/14 20:10:50;;;;;;;9.48;3.90;;;;;;;25.18;100.00;100866.59;5055540;28;20053;-46
2023/08/14 20:13:17;;;;;;;12.23;4.22;;;;;;;25.18;100.00;100869.44;5052826;28;20042;-46
2023/08/14 20:15:45;;;;;;;10.75;4.05;;;;;;;25.06;100.00;100865.03;5059299;28;20426;-47
2023/08/14 20:18:13;;;;;;;8.30;3.75;;;;;;;25.17;100.00;100858.59;5041107;28;20516;-47
2023/08/14 20:20:41;;;;;;;9.13;3.85;;;;;;;25.14;100.00;100854.69;5047188;28;20075;-46
2023/08/14 20:23:09;;;;;;;13.02;4.18;;;;;;;25.10;100.00;100859.88;5047811;28;20122;-50
2023/08/14 20:25:36;;;;;;;9.57;4.15;;;;;;;24.98;100.00;100852.63;5055967;28;20056;-49
2023/08/14 20:28:05;;;;;;;9.77;3.95;;;;;;;25.19;100.00;100851.09;5046380;28;20628;-48
2023/08/14 20:30:42;;;;;;;10.00;3.90;;;;;;;25.09;100.00;100861.16;5048853;28;20065;-46
2023/08/14 20:33:10;;;;;;;9.38;3.90;;;;;;;25.08;100.00;100859.63;5055219;28;20057;-48
2023/08/14 20:35:38;;;;;;;10.60;4.18;;;;;;;24.79;100.00;100862.09;5054570;28;20165;-46
2023/08/14 20:38:05;;;;;;;10.32;3.50;;;;;;;24.99;100.00;100862.69;5051733;28;20087;-47
2023/08/14 20:40:31;;;;;;;9.55;3.92;;;;;;;25.08;100.00;100862.47;5048344;28;20080;-46
2023/08/14 20:42:58;;;;;;;9.02;3.45;;;;;;;25.18;100.00;100872.28;5060259;28;20049;-49
2023/08/14 20:45:24;;;;;;;11.75;4.18;;;;;;;25.06;100.00;100872.78;5047618;28;20076;-44